sensor_id;sensor_type;location;lat;lon;timestamp;P1;durP1;ratioP1;P2;durP2;ratioP2
47804;SDS011;33568;45.286;9.900;2023-12-29T00:01:10;20.33;;;18.15;;
47804;SDS011;33568;45.286;9.900;2023-12-29T00:03:37;27.83;;;20.67;;
47804;SDS011;33568;45.286;9.900;2023-12-29T00:08:30;27.20;;;19.25;;
47804;SDS011;33568;45.286;9.900;2023-12-29T00:10:57;26.10;;;19.50;;
47804;SDS011;33568;45.286;9.900;2023-12-29T00:13:23;28.77;;;20.77;;
47804;SDS011;33568;45.286;9.900;2023-12-29T00:15:54;25.00;;;19.42;;
47804;SDS011;33568;45.286;9.900;2023-12-29T00:18:21;23.90;;;19.52;;
47804;SDS011;33568;45.286;9.900;2023-12-29T00:20:48;26.80;;;20.65;;
47804;SDS011;33568;45.286;9.900;2023-12-29T00:23:15;30.20;;;22.10;;
47804;SDS011;33568;45.286;9.900;2023-12-29T00:25:41;23.05;;;20.02;;
47804;SDS011;33568;45.286;9.900;2023-12-29T00:28:08;29.20;;;21.65;;
47804;SDS011;33568;45.286;9.900;2023-12-29T00:30:37;31.23;;;21.83;;
47804;SDS011;33568;45.286;9.900;2023-12-29T00:33:05;23.55;;;20.08;;
47804;SDS011;33568;45.286;9.900;2023-12-29T00:35:32;25.20;;;19.50;;
47804;SDS011;33568;45.286;9.900;2023-12-29T00:38:02;25.52;;;21.08;;
47804;SDS011;33568;45.286;9.900;2023-12-29T00:40:30;29.92;;;21.08;;
47804;SDS011;33568;45.286;9.900;2023-12-29T00:42:59;24.85;;;20.45;;
47804;SDS011;33568;45.286;9.900;2023-12-29T00:45:26;25.75;;;21.13;;
47804;SDS011;33568;45.286;9.900;2023-12-29T00:47:58;27.58;;;20.23;;
47804;SDS011;33568;45.286;9.900;2023-12-29T00:50:25;30.42;;;21.67;;
47804;SDS011;33568;45.286;9.900;2023-12-29T00:52:52;23.73;;;19.90;;
47804;SDS011;33568;45.286;9.900;2023-12-29T00:57:45;25.35;;;20.25;;
47804;SDS011;33568;45.286;9.900;2023-12-29T01:02:38;28.50;;;21.83;;
47804;SDS011;33568;45.286;9.900;2023-12-29T01:05:05;26.67;;;21.27;;
47804;SDS011;33568;45.286;9.900;2023-12-29T01:07:32;27.27;;;20.80;;
47804;SDS011;33568;45.286;9.900;2023-12-29T01:09:59;29.33;;;21.92;;
47804;SDS011;33568;45.286;9.900;2023-12-29T01:12:28;28.52;;;21.48;;
47804;SDS011;33568;45.286;9.900;2023-12-29T01:14:55;26.85;;;20.75;;
47804;SDS011;33568;45.286;9.900;2023-12-29T01:17:21;28.50;;;21.65;;
47804;SDS011;33568;45.286;9.900;2023-12-29T01:22:14;30.10;;;20.98;;
47804;SDS011;33568;45.286;9.900;2023-12-29T01:24:40;28.08;;;21.80;;
47804;SDS011;33568;45.286;9.900;2023-12-29T01:27:07;27.65;;;23.08;;
47804;SDS011;33568;45.286;9.900;2023-12-29T01:29:33;28.45;;;23.60;;
47804;SDS011;33568;45.286;9.900;2023-12-29T01:32:00;26.42;;;21.52;;
47804;SDS011;33568;45.286;9.900;2023-12-29T01:34:29;29.45;;;23.55;;
47804;SDS011;33568;45.286;9.900;2023-12-29T01:36:59;25.80;;;22.63;;
47804;SDS011;33568;45.286;9.900;2023-12-29T01:39:28;29.27;;;22.55;;
47804;SDS011;33568;45.286;9.900;2023-12-29T01:41:58;25.38;;;22.58;;
47804;SDS011;33568;45.286;9.900;2023-12-29T01:44:24;26.98;;;23.48;;
47804;SDS011;33568;45.286;9.900;2023-12-29T01:49:19;31.08;;;23.27;;
47804;SDS011;33568;45.286;9.900;2023-12-29T01:51:53;26.58;;;21.85;;
47804;SDS011;33568;45.286;9.900;2023-12-29T01:54:21;27.70;;;23.92;;
47804;SDS011;33568;45.286;9.900;2023-12-29T01:56:51;27.65;;;23.08;;
47804;SDS011;33568;45.286;9.900;2023-12-29T01:59:21;28.95;;;23.48;;
47804;SDS011;33568;45.286;9.900;2023-12-29T02:01:48;28.88;;;23.98;;
47804;SDS011;33568;45.286;9.900;2023-12-29T02:04:16;29.70;;;24.67;;
47804;SDS011;33568;45.286;9.900;2023-12-29T02:06:44;28.42;;;24.15;;
47804;SDS011;33568;45.286;9.900;2023-12-29T02:09:11;31.40;;;24.10;;
47804;SDS011;33568;45.286;9.900;2023-12-29T02:11:42;32.45;;;22.88;;
47804;SDS011;33568;45.286;9.900;2023-12-29T02:14:08;27.10;;;22.33;;
47804;SDS011;33568;45.286;9.900;2023-12-29T02:22:12;25.48;;;22.13;;
47804;SDS011;33568;45.286;9.900;2023-12-29T02:24:39;30.10;;;24.83;;
47804;SDS011;33568;45.286;9.900;2023-12-29T02:29:53;28.95;;;24.17;;
47804;SDS011;33568;45.286;9.900;2023-12-29T02:32:32;28.40;;;24.42;;
47804;SDS011;33568;45.286;9.900;2023-12-29T02:35:01;28.50;;;24.13;;
47804;SDS011;33568;45.286;9.900;2023-12-29T02:37:29;28.08;;;23.63;;
47804;SDS011;33568;45.286;9.900;2023-12-29T02:39:58;36.00;;;26.90;;
47804;SDS011;33568;45.286;9.900;2023-12-29T02:42:24;27.13;;;23.42;;
47804;SDS011;33568;45.286;9.900;2023-12-29T02:44:51;29.13;;;26.13;;
47804;SDS011;33568;45.286;9.900;2023-12-29T02:47:17;29.02;;;24.60;;
47804;SDS011;33568;45.286;9.900;2023-12-29T02:49:45;30.77;;;26.65;;
47804;SDS011;33568;45.286;9.900;2023-12-29T02:52:11;32.40;;;27.08;;
47804;SDS011;33568;45.286;9.900;2023-12-29T02:54:37;30.67;;;26.10;;
47804;SDS011;33568;45.286;9.900;2023-12-29T02:59:30;32.63;;;25.88;;
47804;SDS011;33568;45.286;9.900;2023-12-29T03:01:57;28.42;;;25.33;;
47804;SDS011;33568;45.286;9.900;2023-12-29T03:04:23;30.00;;;25.92;;
47804;SDS011;33568;45.286;9.900;2023-12-29T03:06:49;29.08;;;25.60;;
47804;SDS011;33568;45.286;9.900;2023-12-29T03:11:42;34.35;;;25.27;;
47804;SDS011;33568;45.286;9.900;2023-12-29T03:14:08;35.50;;;27.73;;
47804;SDS011;33568;45.286;9.900;2023-12-29T03:19:01;29.60;;;25.02;;
47804;SDS011;33568;45.286;9.900;2023-12-29T03:21:28;32.45;;;27.23;;
47804;SDS011;33568;45.286;9.900;2023-12-29T03:26:20;32.53;;;26.90;;
47804;SDS011;33568;45.286;9.900;2023-12-29T03:28:47;31.20;;;26.80;;
47804;SDS011;33568;45.286;9.900;2023-12-29T03:31:13;29.48;;;26.48;;
47804;SDS011;33568;45.286;9.900;2023-12-29T03:33:40;33.05;;;27.65;;
47804;SDS011;33568;45.286;9.900;2023-12-29T03:38:34;32.20;;;26.60;;
47804;SDS011;33568;45.286;9.900;2023-12-29T03:41:03;29.30;;;26.15;;
47804;SDS011;33568;45.286;9.900;2023-12-29T03:43:29;32.33;;;28.75;;
47804;SDS011;33568;45.286;9.900;2023-12-29T03:45:56;33.20;;;26.05;;
47804;SDS011;33568;45.286;9.900;2023-12-29T03:48:23;29.95;;;26.42;;
47804;SDS011;33568;45.286;9.900;2023-12-29T03:50:50;36.72;;;26.23;;
47804;SDS011;33568;45.286;9.900;2023-12-29T03:53:16;40.03;;;26.88;;
47804;SDS011;33568;45.286;9.900;2023-12-29T03:55:44;34.95;;;28.20;;
47804;SDS011;33568;45.286;9.900;2023-12-29T03:58:11;37.35;;;27.77;;
47804;SDS011;33568;45.286;9.900;2023-12-29T04:00:37;31.73;;;25.73;;
47804;SDS011;33568;45.286;9.900;2023-12-29T04:03:07;34.70;;;29.50;;
47804;SDS011;33568;45.286;9.900;2023-12-29T04:05:33;34.28;;;28.58;;
47804;SDS011;33568;45.286;9.900;2023-12-29T04:08:00;41.30;;;28.80;;
47804;SDS011;33568;45.286;9.900;2023-12-29T04:12:53;31.92;;;25.60;;
47804;SDS011;33568;45.286;9.900;2023-12-29T04:15:19;32.40;;;25.88;;
47804;SDS011;33568;45.286;9.900;2023-12-29T04:20:13;33.17;;;26.83;;
47804;SDS011;33568;45.286;9.900;2023-12-29T04:25:07;40.95;;;32.40;;
47804;SDS011;33568;45.286;9.900;2023-12-29T04:27:35;35.50;;;28.90;;
47804;SDS011;33568;45.286;9.900;2023-12-29T04:30:02;30.27;;;26.33;;
47804;SDS011;33568;45.286;9.900;2023-12-29T04:32:30;27.05;;;24.02;;
47804;SDS011;33568;45.286;9.900;2023-12-29T04:37:25;32.40;;;25.85;;
47804;SDS011;33568;45.286;9.900;2023-12-29T04:39:51;32.83;;;26.98;;
47804;SDS011;33568;45.286;9.900;2023-12-29T04:42:18;35.33;;;26.98;;
47804;SDS011;33568;45.286;9.900;2023-12-29T04:44:44;31.27;;;25.90;;
47804;SDS011;33568;45.286;9.900;2023-12-29T04:49:37;32.00;;;25.67;;
47804;SDS011;33568;45.286;9.900;2023-12-29T04:52:03;28.83;;;24.50;;
47804;SDS011;33568;45.286;9.900;2023-12-29T04:54:30;34.05;;;26.08;;
47804;SDS011;33568;45.286;9.900;2023-12-29T04:56:56;31.70;;;25.65;;
47804;SDS011;33568;45.286;9.900;2023-12-29T04:59:23;34.00;;;27.98;;
47804;SDS011;33568;45.286;9.900;2023-12-29T05:04:15;33.80;;;25.90;;
47804;SDS011;33568;45.286;9.900;2023-12-29T05:06:42;34.88;;;26.10;;
47804;SDS011;33568;45.286;9.900;2023-12-29T05:09:09;33.15;;;25.05;;
47804;SDS011;33568;45.286;9.900;2023-12-29T05:11:35;34.83;;;27.20;;
47804;SDS011;33568;45.286;9.900;2023-12-29T05:14:02;33.55;;;26.00;;
47804;SDS011;33568;45.286;9.900;2023-12-29T05:16:28;32.53;;;27.48;;
47804;SDS011;33568;45.286;9.900;2023-12-29T05:18:54;35.28;;;27.98;;
47804;SDS011;33568;45.286;9.900;2023-12-29T05:23:49;40.90;;;27.92;;
47804;SDS011;33568;45.286;9.900;2023-12-29T05:26:16;35.88;;;27.80;;
47804;SDS011;33568;45.286;9.900;2023-12-29T05:28:42;31.42;;;27.60;;
47804;SDS011;33568;45.286;9.900;2023-12-29T05:31:09;39.13;;;28.38;;
47804;SDS011;33568;45.286;9.900;2023-12-29T05:36:08;31.35;;;27.20;;
47804;SDS011;33568;45.286;9.900;2023-12-29T05:38:36;39.88;;;27.65;;
47804;SDS011;33568;45.286;9.900;2023-12-29T05:41:03;34.35;;;27.92;;
47804;SDS011;33568;45.286;9.900;2023-12-29T05:43:31;39.40;;;29.10;;
47804;SDS011;33568;45.286;9.900;2023-12-29T05:45:58;37.15;;;28.65;;
47804;SDS011;33568;45.286;9.900;2023-12-29T05:48:25;32.42;;;27.73;;
47804;SDS011;33568;45.286;9.900;2023-12-29T05:53:17;32.97;;;27.65;;
47804;SDS011;33568;45.286;9.900;2023-12-29T05:58:11;36.83;;;27.20;;
47804;SDS011;33568;45.286;9.900;2023-12-29T06:00:38;33.85;;;27.70;;
47804;SDS011;33568;45.286;9.900;2023-12-29T06:03:05;35.88;;;26.35;;
47804;SDS011;33568;45.286;9.900;2023-12-29T06:05:32;34.85;;;28.48;;
47804;SDS011;33568;45.286;9.900;2023-12-29T06:07:59;35.22;;;28.52;;
47804;SDS011;33568;45.286;9.900;2023-12-29T06:12:52;35.40;;;28.35;;
47804;SDS011;33568;45.286;9.900;2023-12-29T06:15:18;35.88;;;29.35;;
47804;SDS011;33568;45.286;9.900;2023-12-29T06:17:46;38.10;;;30.23;;
47804;SDS011;33568;45.286;9.900;2023-12-29T06:20:12;35.58;;;29.70;;
47804;SDS011;33568;45.286;9.900;2023-12-29T06:25:12;45.03;;;33.65;;
47804;SDS011;33568;45.286;9.900;2023-12-29T06:27:39;41.53;;;30.25;;
47804;SDS011;33568;45.286;9.900;2023-12-29T06:30:06;36.67;;;28.48;;
47804;SDS011;33568;45.286;9.900;2023-12-29T06:32:34;37.03;;;29.10;;
47804;SDS011;33568;45.286;9.900;2023-12-29T06:35:00;36.17;;;29.77;;
47804;SDS011;33568;45.286;9.900;2023-12-29T06:37:27;35.22;;;28.55;;
47804;SDS011;33568;45.286;9.900;2023-12-29T06:39:53;37.80;;;28.35;;
47804;SDS011;33568;45.286;9.900;2023-12-29T06:42:20;38.30;;;28.60;;
47804;SDS011;33568;45.286;9.900;2023-12-29T06:44:46;40.10;;;28.02;;
47804;SDS011;33568;45.286;9.900;2023-12-29T06:47:13;40.72;;;27.20;;
47804;SDS011;33568;45.286;9.900;2023-12-29T06:49:39;53.42;;;29.15;;
47804;SDS011;33568;45.286;9.900;2023-12-29T06:52:06;39.28;;;28.17;;
47804;SDS011;33568;45.286;9.900;2023-12-29T06:54:33;31.40;;;28.00;;
47804;SDS011;33568;45.286;9.900;2023-12-29T06:57:00;36.80;;;25.58;;
47804;SDS011;33568;45.286;9.900;2023-12-29T06:59:26;31.98;;;25.98;;
47804;SDS011;33568;45.286;9.900;2023-12-29T07:01:53;36.55;;;26.20;;
47804;SDS011;33568;45.286;9.900;2023-12-29T07:04:19;33.17;;;26.33;;
47804;SDS011;33568;45.286;9.900;2023-12-29T07:06:45;32.00;;;26.40;;
47804;SDS011;33568;45.286;9.900;2023-12-29T07:09:12;41.03;;;28.63;;
47804;SDS011;33568;45.286;9.900;2023-12-29T07:11:38;46.47;;;30.02;;
47804;SDS011;33568;45.286;9.900;2023-12-29T07:14:05;40.08;;;30.58;;
47804;SDS011;33568;45.286;9.900;2023-12-29T07:18:57;43.88;;;29.60;;
47804;SDS011;33568;45.286;9.900;2023-12-29T07:21:24;40.13;;;28.50;;
47804;SDS011;33568;45.286;9.900;2023-12-29T07:23:50;33.92;;;29.13;;
47804;SDS011;33568;45.286;9.900;2023-12-29T07:28:43;31.50;;;26.20;;
47804;SDS011;33568;45.286;9.900;2023-12-29T07:31:09;30.58;;;26.15;;
47804;SDS011;33568;45.286;9.900;2023-12-29T07:36:02;39.03;;;27.83;;
47804;SDS011;33568;45.286;9.900;2023-12-29T07:38:28;33.38;;;27.23;;
47804;SDS011;33568;45.286;9.900;2023-12-29T07:40:55;42.30;;;26.42;;
47804;SDS011;33568;45.286;9.900;2023-12-29T07:43:21;31.33;;;27.02;;
47804;SDS011;33568;45.286;9.900;2023-12-29T07:45:48;38.78;;;27.40;;
47804;SDS011;33568;45.286;9.900;2023-12-29T07:48:14;34.60;;;26.40;;
47804;SDS011;33568;45.286;9.900;2023-12-29T07:50:40;38.53;;;27.85;;
47804;SDS011;33568;45.286;9.900;2023-12-29T07:53:07;37.55;;;27.67;;
47804;SDS011;33568;45.286;9.900;2023-12-29T07:55:36;33.25;;;26.00;;
47804;SDS011;33568;45.286;9.900;2023-12-29T07:58:04;33.20;;;26.15;;
47804;SDS011;33568;45.286;9.900;2023-12-29T08:00:30;30.65;;;24.90;;
47804;SDS011;33568;45.286;9.900;2023-12-29T08:07:51;33.58;;;25.80;;
47804;SDS011;33568;45.286;9.900;2023-12-29T08:10:17;38.83;;;26.70;;
47804;SDS011;33568;45.286;9.900;2023-12-29T08:12:44;33.83;;;26.17;;
47804;SDS011;33568;45.286;9.900;2023-12-29T08:17:37;31.70;;;24.95;;
47804;SDS011;33568;45.286;9.900;2023-12-29T08:20:04;37.03;;;27.60;;
47804;SDS011;33568;45.286;9.900;2023-12-29T08:22:31;32.10;;;27.00;;
47804;SDS011;33568;45.286;9.900;2023-12-29T08:24:58;33.45;;;26.52;;
47804;SDS011;33568;45.286;9.900;2023-12-29T08:29:51;32.88;;;27.17;;
47804;SDS011;33568;45.286;9.900;2023-12-29T08:32:18;32.33;;;27.02;;
47804;SDS011;33568;45.286;9.900;2023-12-29T08:37:10;35.17;;;27.75;;
47804;SDS011;33568;45.286;9.900;2023-12-29T08:39:37;34.70;;;27.67;;
47804;SDS011;33568;45.286;9.900;2023-12-29T08:42:03;31.10;;;27.60;;
47804;SDS011;33568;45.286;9.900;2023-12-29T08:46:56;32.90;;;27.40;;
47804;SDS011;33568;45.286;9.900;2023-12-29T08:49:22;41.08;;;28.13;;
47804;SDS011;33568;45.286;9.900;2023-12-29T08:51:49;35.95;;;28.17;;
47804;SDS011;33568;45.286;9.900;2023-12-29T08:54:15;37.08;;;29.42;;
47804;SDS011;33568;45.286;9.900;2023-12-29T08:56:44;36.25;;;29.92;;
47804;SDS011;33568;45.286;9.900;2023-12-29T08:59:10;34.55;;;27.73;;
47804;SDS011;33568;45.286;9.900;2023-12-29T09:01:36;38.85;;;30.75;;
47804;SDS011;33568;45.286;9.900;2023-12-29T09:04:03;33.30;;;29.70;;
47804;SDS011;33568;45.286;9.900;2023-12-29T09:08:55;40.47;;;30.52;;
47804;SDS011;33568;45.286;9.900;2023-12-29T09:11:22;35.13;;;28.77;;
47804;SDS011;33568;45.286;9.900;2023-12-29T09:16:14;40.40;;;29.33;;
47804;SDS011;33568;45.286;9.900;2023-12-29T09:18:41;44.17;;;31.00;;
47804;SDS011;33568;45.286;9.900;2023-12-29T09:23:33;33.58;;;28.38;;
47804;SDS011;33568;45.286;9.900;2023-12-29T09:26:03;38.20;;;30.58;;
47804;SDS011;33568;45.286;9.900;2023-12-29T09:28:32;36.05;;;29.65;;
47804;SDS011;33568;45.286;9.900;2023-12-29T09:30:59;34.85;;;29.33;;
47804;SDS011;33568;45.286;9.900;2023-12-29T09:33:26;42.90;;;33.53;;
47804;SDS011;33568;45.286;9.900;2023-12-29T09:35:53;36.03;;;32.08;;
47804;SDS011;33568;45.286;9.900;2023-12-29T09:38:19;43.80;;;32.75;;
47804;SDS011;33568;45.286;9.900;2023-12-29T09:40:46;39.22;;;31.88;;
47804;SDS011;33568;45.286;9.900;2023-12-29T09:43:14;38.00;;;32.42;;
47804;SDS011;33568;45.286;9.900;2023-12-29T09:45:42;40.95;;;30.70;;
47804;SDS011;33568;45.286;9.900;2023-12-29T09:48:12;35.53;;;31.77;;
47804;SDS011;33568;45.286;9.900;2023-12-29T09:50:42;43.08;;;32.17;;
47804;SDS011;33568;45.286;9.900;2023-12-29T09:53:10;35.55;;;31.73;;
47804;SDS011;33568;45.286;9.900;2023-12-29T09:55:38;39.15;;;29.05;;
47804;SDS011;33568;45.286;9.900;2023-12-29T09:58:06;33.92;;;28.73;;
47804;SDS011;33568;45.286;9.900;2023-12-29T10:00:34;35.90;;;29.38;;
47804;SDS011;33568;45.286;9.900;2023-12-29T10:03:01;33.50;;;28.50;;
47804;SDS011;33568;45.286;9.900;2023-12-29T10:05:28;39.60;;;29.50;;
47804;SDS011;33568;45.286;9.900;2023-12-29T10:07:54;34.13;;;27.60;;
47804;SDS011;33568;45.286;9.900;2023-12-29T10:10:23;35.05;;;27.63;;
47804;SDS011;33568;45.286;9.900;2023-12-29T10:12:51;33.70;;;27.45;;
47804;SDS011;33568;45.286;9.900;2023-12-29T10:15:24;36.72;;;27.58;;
47804;SDS011;33568;45.286;9.900;2023-12-29T10:20:44;32.70;;;27.00;;
47804;SDS011;33568;45.286;9.900;2023-12-29T10:23:36;36.00;;;28.75;;
47804;SDS011;33568;45.286;9.900;2023-12-29T10:26:07;40.10;;;27.40;;
47804;SDS011;33568;45.286;9.900;2023-12-29T10:28:36;34.38;;;28.92;;
47804;SDS011;33568;45.286;9.900;2023-12-29T10:33:30;40.47;;;29.07;;
47804;SDS011;33568;45.286;9.900;2023-12-29T10:35:58;40.10;;;29.08;;
47804;SDS011;33568;45.286;9.900;2023-12-29T10:38:33;33.47;;;29.63;;
47804;SDS011;33568;45.286;9.900;2023-12-29T10:41:16;41.88;;;29.15;;
47804;SDS011;33568;45.286;9.900;2023-12-29T10:43:44;38.45;;;28.45;;
47804;SDS011;33568;45.286;9.900;2023-12-29T10:46:18;44.33;;;27.52;;
47804;SDS011;33568;45.286;9.900;2023-12-29T10:48:45;37.58;;;29.98;;
47804;SDS011;33568;45.286;9.900;2023-12-29T10:51:11;38.50;;;29.40;;
47804;SDS011;33568;45.286;9.900;2023-12-29T10:56:04;37.45;;;30.02;;
47804;SDS011;33568;45.286;9.900;2023-12-29T10:58:36;32.67;;;27.50;;
47804;SDS011;33568;45.286;9.900;2023-12-29T11:01:03;37.35;;;27.33;;
47804;SDS011;33568;45.286;9.900;2023-12-29T11:03:40;35.78;;;27.90;;
47804;SDS011;33568;45.286;9.900;2023-12-29T11:06:06;33.78;;;27.75;;
47804;SDS011;33568;45.286;9.900;2023-12-29T11:08:33;34.80;;;27.50;;
47804;SDS011;33568;45.286;9.900;2023-12-29T11:11:01;36.67;;;27.83;;
47804;SDS011;33568;45.286;9.900;2023-12-29T11:13:29;37.17;;;27.67;;
47804;SDS011;33568;45.286;9.900;2023-12-29T11:15:55;37.28;;;29.20;;
47804;SDS011;33568;45.286;9.900;2023-12-29T11:18:23;35.58;;;28.08;;
47804;SDS011;33568;45.286;9.900;2023-12-29T11:20:51;34.58;;;26.15;;
47804;SDS011;33568;45.286;9.900;2023-12-29T11:23:19;36.85;;;26.70;;
47804;SDS011;33568;45.286;9.900;2023-12-29T11:28:12;34.78;;;26.02;;
47804;SDS011;33568;45.286;9.900;2023-12-29T11:30:39;34.75;;;26.52;;
47804;SDS011;33568;45.286;9.900;2023-12-29T11:33:08;37.35;;;27.23;;
47804;SDS011;33568;45.286;9.900;2023-12-29T11:36:12;31.45;;;26.48;;
47804;SDS011;33568;45.286;9.900;2023-12-29T11:44:05;38.15;;;27.45;;
47804;SDS011;33568;45.286;9.900;2023-12-29T11:46:32;37.70;;;27.33;;
47804;SDS011;33568;45.286;9.900;2023-12-29T11:49:03;34.92;;;26.08;;
47804;SDS011;33568;45.286;9.900;2023-12-29T11:51:31;32.60;;;25.60;;
47804;SDS011;33568;45.286;9.900;2023-12-29T11:54:00;38.42;;;27.38;;
47804;SDS011;33568;45.286;9.900;2023-12-29T11:56:35;29.70;;;26.15;;
47804;SDS011;33568;45.286;9.900;2023-12-29T11:59:18;38.17;;;29.98;;
47804;SDS011;33568;45.286;9.900;2023-12-29T12:01:54;32.95;;;25.50;;
47804;SDS011;33568;45.286;9.900;2023-12-29T12:07:09;36.00;;;27.55;;
47804;SDS011;33568;45.286;9.900;2023-12-29T12:12:49;34.13;;;26.67;;
47804;SDS011;33568;45.286;9.900;2023-12-29T12:17:57;36.17;;;26.20;;
47804;SDS011;33568;45.286;9.900;2023-12-29T12:20:32;34.13;;;28.00;;
47804;SDS011;33568;45.286;9.900;2023-12-29T12:22:59;38.15;;;27.23;;
47804;SDS011;33568;45.286;9.900;2023-12-29T12:25:27;36.55;;;27.25;;
47804;SDS011;33568;45.286;9.900;2023-12-29T12:27:56;32.30;;;26.83;;
47804;SDS011;33568;45.286;9.900;2023-12-29T12:30:23;32.38;;;25.65;;
47804;SDS011;33568;45.286;9.900;2023-12-29T12:35:23;41.42;;;26.08;;
47804;SDS011;33568;45.286;9.900;2023-12-29T12:38:11;34.55;;;25.48;;
47804;SDS011;33568;45.286;9.900;2023-12-29T12:40:48;32.95;;;23.90;;
47804;SDS011;33568;45.286;9.900;2023-12-29T12:43:14;30.15;;;23.70;;
47804;SDS011;33568;45.286;9.900;2023-12-29T12:45:53;30.92;;;23.35;;
47804;SDS011;33568;45.286;9.900;2023-12-29T12:48:23;30.40;;;23.65;;
47804;SDS011;33568;45.286;9.900;2023-12-29T12:50:54;29.77;;;23.10;;
47804;SDS011;33568;45.286;9.900;2023-12-29T12:53:23;32.53;;;23.13;;
47804;SDS011;33568;45.286;9.900;2023-12-29T12:55:50;30.25;;;23.88;;
47804;SDS011;33568;45.286;9.900;2023-12-29T12:58:17;28.80;;;23.27;;
47804;SDS011;33568;45.286;9.900;2023-12-29T13:00:46;30.23;;;23.83;;
47804;SDS011;33568;45.286;9.900;2023-12-29T13:03:14;30.10;;;23.23;;
47804;SDS011;33568;45.286;9.900;2023-12-29T13:05:41;30.02;;;24.13;;
47804;SDS011;33568;45.286;9.900;2023-12-29T13:08:08;34.22;;;25.77;;
47804;SDS011;33568;45.286;9.900;2023-12-29T13:10:40;28.38;;;23.75;;
47804;SDS011;33568;45.286;9.900;2023-12-29T13:13:09;34.72;;;27.67;;
47804;SDS011;33568;45.286;9.900;2023-12-29T13:15:44;31.85;;;25.88;;
47804;SDS011;33568;45.286;9.900;2023-12-29T13:18:12;32.20;;;26.15;;
47804;SDS011;33568;45.286;9.900;2023-12-29T13:20:46;31.75;;;25.52;;
47804;SDS011;33568;45.286;9.900;2023-12-29T13:23:13;31.88;;;24.15;;
47804;SDS011;33568;45.286;9.900;2023-12-29T13:25:40;32.42;;;25.73;;
47804;SDS011;33568;45.286;9.900;2023-12-29T13:28:09;31.98;;;23.92;;
47804;SDS011;33568;45.286;9.900;2023-12-29T13:30:36;35.17;;;25.20;;
47804;SDS011;33568;45.286;9.900;2023-12-29T13:33:11;26.17;;;23.33;;
47804;SDS011;33568;45.286;9.900;2023-12-29T13:36:19;28.63;;;24.13;;
47804;SDS011;33568;45.286;9.900;2023-12-29T13:38:57;29.73;;;24.73;;
47804;SDS011;33568;45.286;9.900;2023-12-29T13:41:29;27.92;;;24.13;;
47804;SDS011;33568;45.286;9.900;2023-12-29T13:43:57;35.67;;;23.42;;
47804;SDS011;33568;45.286;9.900;2023-12-29T13:46:25;31.20;;;25.58;;
47804;SDS011;33568;45.286;9.900;2023-12-29T13:48:52;34.42;;;26.42;;
47804;SDS011;33568;45.286;9.900;2023-12-29T13:51:24;34.25;;;26.60;;
47804;SDS011;33568;45.286;9.900;2023-12-29T13:53:58;32.08;;;26.60;;
47804;SDS011;33568;45.286;9.900;2023-12-29T13:56:25;33.60;;;26.52;;
47804;SDS011;33568;45.286;9.900;2023-12-29T14:01:18;31.65;;;25.23;;
47804;SDS011;33568;45.286;9.900;2023-12-29T14:06:21;34.30;;;27.98;;
47804;SDS011;33568;45.286;9.900;2023-12-29T14:08:53;38.13;;;28.65;;
47804;SDS011;33568;45.286;9.900;2023-12-29T14:13:46;37.25;;;28.83;;
47804;SDS011;33568;45.286;9.900;2023-12-29T14:16:13;41.03;;;31.55;;
47804;SDS011;33568;45.286;9.900;2023-12-29T14:21:32;40.83;;;31.42;;
47804;SDS011;33568;45.286;9.900;2023-12-29T14:26:41;47.95;;;33.15;;
47804;SDS011;33568;45.286;9.900;2023-12-29T14:29:12;39.60;;;35.08;;
47804;SDS011;33568;45.286;9.900;2023-12-29T14:31:40;52.08;;;38.83;;
47804;SDS011;33568;45.286;9.900;2023-12-29T14:34:08;59.85;;;42.55;;
47804;SDS011;33568;45.286;9.900;2023-12-29T14:36:36;53.38;;;41.50;;
47804;SDS011;33568;45.286;9.900;2023-12-29T14:39:03;54.10;;;41.25;;
47804;SDS011;33568;45.286;9.900;2023-12-29T14:41:30;53.95;;;41.88;;
47804;SDS011;33568;45.286;9.900;2023-12-29T14:43:57;70.90;;;52.40;;
47804;SDS011;33568;45.286;9.900;2023-12-29T14:46:24;63.88;;;50.13;;
47804;SDS011;33568;45.286;9.900;2023-12-29T14:51:20;50.00;;;41.95;;
47804;SDS011;33568;45.286;9.900;2023-12-29T14:53:47;77.63;;;58.78;;
47804;SDS011;33568;45.286;9.900;2023-12-29T14:56:14;50.10;;;42.25;;
47804;SDS011;33568;45.286;9.900;2023-12-29T14:58:42;55.53;;;43.60;;
47804;SDS011;33568;45.286;9.900;2023-12-29T15:01:09;57.20;;;41.72;;
47804;SDS011;33568;45.286;9.900;2023-12-29T15:03:36;60.88;;;49.38;;
47804;SDS011;33568;45.286;9.900;2023-12-29T15:06:02;53.92;;;46.08;;
47804;SDS011;33568;45.286;9.900;2023-12-29T15:08:30;56.17;;;43.10;;
47804;SDS011;33568;45.286;9.900;2023-12-29T15:11:04;68.97;;;46.03;;
47804;SDS011;33568;45.286;9.900;2023-12-29T15:13:31;76.00;;;56.03;;
47804;SDS011;33568;45.286;9.900;2023-12-29T15:15:58;64.30;;;51.75;;
47804;SDS011;33568;45.286;9.900;2023-12-29T15:18:26;74.03;;;57.00;;
47804;SDS011;33568;45.286;9.900;2023-12-29T15:20:53;76.15;;;57.83;;
47804;SDS011;33568;45.286;9.900;2023-12-29T15:23:20;75.93;;;57.45;;
47804;SDS011;33568;45.286;9.900;2023-12-29T15:25:47;59.53;;;51.63;;
47804;SDS011;33568;45.286;9.900;2023-12-29T15:28:14;58.45;;;48.90;;
47804;SDS011;33568;45.286;9.900;2023-12-29T15:30:43;59.38;;;51.50;;
47804;SDS011;33568;45.286;9.900;2023-12-29T15:33:12;74.60;;;49.17;;
47804;SDS011;33568;45.286;9.900;2023-12-29T15:38:06;59.33;;;45.20;;
47804;SDS011;33568;45.286;9.900;2023-12-29T15:40:33;65.95;;;46.60;;
47804;SDS011;33568;45.286;9.900;2023-12-29T15:45:26;51.58;;;43.28;;
47804;SDS011;33568;45.286;9.900;2023-12-29T15:47:52;55.53;;;44.30;;
47804;SDS011;33568;45.286;9.900;2023-12-29T15:50:18;60.47;;;48.00;;
47804;SDS011;33568;45.286;9.900;2023-12-29T15:52:45;60.45;;;46.88;;
47804;SDS011;33568;45.286;9.900;2023-12-29T15:55:13;58.83;;;46.30;;
47804;SDS011;33568;45.286;9.900;2023-12-29T15:57:39;51.95;;;44.72;;
47804;SDS011;33568;45.286;9.900;2023-12-29T16:00:05;58.45;;;44.65;;
47804;SDS011;33568;45.286;9.900;2023-12-29T16:02:37;50.88;;;43.35;;
47804;SDS011;33568;45.286;9.900;2023-12-29T16:05:03;54.42;;;45.33;;
47804;SDS011;33568;45.286;9.900;2023-12-29T16:07:30;55.10;;;45.50;;
47804;SDS011;33568;45.286;9.900;2023-12-29T16:09:57;60.28;;;50.90;;
47804;SDS011;33568;45.286;9.900;2023-12-29T16:12:23;57.05;;;47.08;;
47804;SDS011;33568;45.286;9.900;2023-12-29T16:14:50;69.05;;;54.45;;
47804;SDS011;33568;45.286;9.900;2023-12-29T16:17:18;58.97;;;46.97;;
47804;SDS011;33568;45.286;9.900;2023-12-29T16:19:45;56.00;;;46.50;;
47804;SDS011;33568;45.286;9.900;2023-12-29T16:22:12;61.50;;;51.22;;
47804;SDS011;33568;45.286;9.900;2023-12-29T16:27:05;63.47;;;47.85;;
47804;SDS011;33568;45.286;9.900;2023-12-29T16:29:31;58.58;;;47.70;;
47804;SDS011;33568;45.286;9.900;2023-12-29T16:31:57;53.70;;;45.40;;
47804;SDS011;33568;45.286;9.900;2023-12-29T16:34:24;53.47;;;45.65;;
47804;SDS011;33568;45.286;9.900;2023-12-29T16:36:55;50.50;;;43.42;;
47804;SDS011;33568;45.286;9.900;2023-12-29T16:39:26;61.22;;;46.20;;
47804;SDS011;33568;45.286;9.900;2023-12-29T16:41:53;62.38;;;49.03;;
47804;SDS011;33568;45.286;9.900;2023-12-29T16:46:45;62.80;;;50.47;;
47804;SDS011;33568;45.286;9.900;2023-12-29T16:49:12;57.17;;;48.50;;